createdAt,value
2023-02-07T00:03:34.250Z,6.90
2023-02-07T00:08:36.799Z,6.78
2023-02-07T00:13:38.582Z,6.85
2023-02-07T00:18:40.516Z,6.57
2023-02-07T00:23:43.475Z,7.47
2023-02-07T00:28:45.207Z,6.32
2023-02-07T00:33:48.810Z,6.00
2023-02-07T00:38:51.580Z,6.85
2023-02-07T00:43:53.364Z,6.93
2023-02-07T00:48:55.661Z,6.82
2023-02-07T00:53:58.036Z,7.03
2023-02-07T00:59:00.143Z,7.07
2023-02-07T01:04:01.844Z,6.93
2023-02-07T01:09:05.863Z,6.97
2023-02-07T01:14:07.528Z,7.03
2023-02-07T01:19:10.739Z,7.53
2023-02-07T01:24:12.393Z,7.88
2023-02-07T01:29:15.961Z,6.53
2023-02-07T01:34:17.594Z,6.20
2023-02-07T01:39:19.357Z,7.00
2023-02-07T01:44:24.007Z,6.53
2023-02-07T01:49:29.539Z,7.20
2023-02-07T01:54:33.698Z,7.37
2023-02-07T01:59:38.888Z,7.07
2023-02-07T02:04:41.207Z,7.40
2023-02-07T02:09:42.894Z,7.88
2023-02-07T02:14:59.413Z,7.07
2023-02-07T02:20:06.803Z,7.30
2023-02-07T02:25:11.437Z,6.68
2023-02-07T02:30:28.219Z,7.65
2023-02-07T02:35:57.695Z,7.03
2023-02-07T02:41:11.537Z,6.68
2023-02-07T02:46:21.298Z,6.72
2023-02-07T02:51:23.191Z,6.95
2023-02-07T02:56:42.777Z,7.00
2023-02-07T03:02:13.297Z,7.28
2023-02-07T03:07:33.268Z,6.25
2023-02-07T03:12:47.621Z,7.22
2023-02-07T03:18:04.873Z,7.13
2023-02-07T03:23:09.031Z,7.63
2023-02-07T03:28:13.092Z,6.53
2023-02-07T03:33:15.849Z,7.30
2023-02-07T03:38:17.600Z,6.50
2023-02-07T03:43:30.691Z,7.28
2023-02-07T03:48:32.369Z,8.38
2023-02-07T03:53:35.246Z,6.60
2023-02-07T03:58:36.891Z,7.53
2023-02-07T04:03:38.555Z,6.93
2023-02-07T04:08:40.381Z,6.13
2023-02-07T04:13:42.069Z,6.78
2023-02-07T04:18:43.726Z,7.50
2023-02-07T04:23:45.447Z,6.28
2023-02-07T04:28:47.063Z,6.63
2023-02-07T04:33:49.136Z,7.20
2023-02-07T04:38:51.071Z,6.63
2023-02-07T04:43:53.266Z,7.00
2023-02-07T04:48:54.921Z,6.38
2023-02-07T04:53:56.884Z,6.95
2023-02-07T04:58:58.573Z,7.70
2023-02-07T05:04:00.242Z,8.00
2023-02-07T05:09:01.907Z,7.72
2023-02-07T05:14:03.831Z,8.23
2023-02-07T05:19:05.543Z,7.75
2023-02-07T05:24:07.618Z,8.10
2023-02-07T05:29:09.384Z,7.90
2023-02-07T05:34:11.035Z,7.82
2023-02-07T05:39:12.656Z,8.75
2023-02-07T05:44:14.342Z,7.75
2023-02-07T05:49:16.060Z,8.45
2023-02-07T05:54:17.775Z,8.35
2023-02-07T05:59:20.892Z,9.07
2023-02-07T06:04:23.798Z,9.48
2023-02-07T06:09:25.552Z,8.40
2023-02-07T06:14:27.600Z,7.60
2023-02-07T06:19:29.245Z,7.40
2023-02-07T06:24:30.877Z,6.97
2023-02-07T06:29:32.705Z,7.30
2023-02-07T06:34:34.519Z,7.07
2023-02-07T06:39:36.348Z,7.68
2023-02-07T06:44:38.004Z,8.07
2023-02-07T06:49:39.636Z,7.88
2023-02-07T06:54:41.437Z,7.72
2023-02-07T06:59:43.314Z,7.75
2023-02-07T07:04:45.009Z,6.63
2023-02-07T07:09:46.831Z,6.90
2023-02-07T07:14:48.584Z,6.68
2023-02-07T07:19:50.245Z,6.90
2023-02-07T07:24:51.950Z,7.93
2023-02-07T07:29:53.643Z,7.45
2023-02-07T07:34:55.487Z,6.68
2023-02-07T07:39:57.654Z,7.18
2023-02-07T07:44:59.830Z,6.70
2023-02-07T07:50:01.544Z,6.40
2023-02-07T07:55:03.353Z,6.57
2023-02-07T08:00:06.482Z,6.13
2023-02-07T08:05:10.382Z,6.80
2023-02-07T08:10:14.260Z,6.57
2023-02-07T08:15:16.068Z,6.10
2023-02-07T08:20:18.180Z,6.25
2023-02-07T08:25:19.881Z,6.13
2023-02-07T08:30:21.981Z,6.18
2023-02-07T08:35:23.707Z,7.43
2023-02-07T08:40:26.365Z,6.47
2023-02-07T08:45:28.298Z,7.75
2023-02-07T08:50:30.097Z,7.03
2023-02-07T08:55:31.949Z,6.97
2023-02-07T09:00:36.186Z,8.30
2023-02-07T09:05:37.909Z,8.45
2023-02-07T09:10:39.883Z,7.32
2023-02-07T09:15:41.885Z,8.10
2023-02-07T09:20:44.367Z,7.45
2023-02-07T09:25:51.349Z,8.15
2023-02-07T09:30:54.886Z,7.05
2023-02-07T09:35:57.987Z,6.68
2023-02-07T09:41:00.121Z,7.68
2023-02-07T09:46:28.124Z,7.93
2023-02-07T09:51:30.845Z,6.93
2023-02-07T09:56:34.960Z,7.80
2023-02-07T10:01:43.414Z,8.07
2023-02-07T10:06:50.480Z,7.18
2023-02-07T10:12:00.300Z,8.10
2023-02-07T10:17:16.541Z,8.30
2023-02-07T10:22:53.477Z,7.68
2023-02-07T10:28:13.350Z,7.82
2023-02-07T10:33:26.225Z,7.82
2023-02-07T10:39:07.649Z,7.28
2023-02-07T10:44:13.466Z,7.80
2023-02-07T10:49:25.866Z,7.97
2023-02-07T10:54:27.766Z,7.85
2023-02-07T10:59:32.342Z,6.95
2023-02-07T11:04:38.969Z,7.25
2023-02-07T11:09:42.142Z,6.72
2023-02-07T11:14:59.726Z,7.40
2023-02-07T11:20:06.999Z,7.88
2023-02-07T11:25:08.959Z,7.78
2023-02-07T11:30:22.218Z,7.38
2023-02-07T11:35:24.104Z,7.45
2023-02-07T11:40:36.697Z,7.32
2023-02-07T11:45:42.585Z,7.25
2023-02-07T11:50:48.340Z,6.95
2023-02-07T11:56:05.641Z,7.53
2023-02-07T12:01:08.892Z,7.05
2023-02-07T12:06:16.828Z,6.95
2023-02-07T12:11:25.846Z,6.32
2023-02-07T12:16:37.055Z,6.60
2023-02-07T12:21:56.879Z,6.90
2023-02-07T12:26:58.562Z,6.88
2023-02-07T12:32:07.744Z,5.97
2023-02-07T12:37:42.589Z,6.05
2023-02-07T12:43:04.026Z,5.28
2023-02-07T12:48:32.344Z,5.80
2023-02-07T12:53:43.707Z,5.63
2023-02-07T12:58:51.354Z,5.60
2023-02-07T13:04:18.007Z,5.22
2023-02-07T13:09:28.218Z,4.82
2023-02-07T13:15:11.670Z,5.07
2023-02-07T13:20:37.958Z,4.40
2023-02-07T13:25:46.517Z,5.28
2023-02-07T13:30:49.631Z,5.13
2023-02-07T13:35:53.444Z,5.53
2023-02-07T13:41:54.828Z,5.20
2023-02-07T13:47:12.815Z,4.97
2023-02-07T13:52:38.532Z,4.55
2023-02-07T13:58:00.623Z,4.97
2023-02-07T14:03:06.508Z,4.13
2023-02-07T14:08:17.038Z,4.13
2023-02-07T14:13:27.394Z,4.10
2023-02-07T14:18:41.112Z,4.57
2023-02-07T14:24:01.529Z,5.15
2023-02-07T14:29:24.497Z,5.13
2023-02-07T14:34:32.655Z,6.60
2023-02-07T14:39:34.588Z,5.82
2023-02-07T14:44:39.944Z,5.80
2023-02-07T14:49:49.996Z,5.85
2023-02-07T14:54:51.631Z,5.22
2023-02-07T15:00:13.512Z,5.70
2023-02-07T15:05:32.990Z,5.45
2023-02-07T15:10:42.001Z,5.68
2023-02-07T15:15:47.547Z,6.07
2023-02-07T15:20:57.493Z,5.80
2023-02-07T15:26:05.178Z,5.72
2023-02-07T15:31:14.163Z,6.28
2023-02-07T15:36:36.200Z,8.05
2023-02-07T15:41:37.881Z,6.88
2023-02-07T15:46:52.990Z,6.85
2023-02-07T15:52:09.012Z,5.90
2023-02-07T15:57:33.874Z,5.65
2023-02-07T16:02:40.209Z,5.75
2023-02-07T16:07:47.807Z,5.97
2023-02-07T16:13:11.341Z,6.28
2023-02-07T16:18:34.470Z,6.50
2023-02-07T16:23:36.705Z,6.53
2023-02-07T16:28:38.476Z,6.43
2023-02-07T16:33:40.651Z,5.88
2023-02-07T16:38:43.091Z,6.15
2023-02-07T16:43:45.037Z,5.90
2023-02-07T16:48:46.714Z,5.65
2023-02-07T16:53:48.991Z,5.68
2023-02-07T16:58:50.920Z,6.28
2023-02-07T17:03:52.634Z,6.78
2023-02-07T17:08:54.466Z,7.07
2023-02-07T17:13:57.912Z,6.88
2023-02-07T17:18:59.816Z,5.80
2023-02-07T17:24:01.968Z,6.38
2023-02-07T17:29:05.365Z,6.40
2023-02-07T17:34:08.074Z,6.32
2023-02-07T17:39:15.256Z,6.05
2023-02-07T17:44:21.792Z,7.07
2023-02-07T17:54:28.064Z,5.68
2023-02-07T17:59:32.414Z,6.72
2023-02-07T18:04:34.911Z,5.72
2023-02-07T18:09:37.467Z,6.68
2023-02-07T18:14:47.598Z,6.30
2023-02-07T18:19:51.317Z,6.93
2023-02-07T18:24:54.962Z,7.50
2023-02-07T18:29:57.582Z,7.28
2023-02-07T18:35:00.303Z,8.07
2023-02-07T18:40:04.176Z,7.93
2023-02-07T18:45:07.563Z,9.63
2023-02-07T18:50:12.536Z,10.65
2023-02-07T18:55:16.893Z,10.88
2023-02-07T19:00:19.690Z,9.30
2023-02-07T19:05:23.487Z,9.10
2023-02-07T19:10:26.258Z,8.80
2023-02-07T19:15:28.507Z,8.65
2023-02-07T19:20:30.997Z,8.48
2023-02-07T19:25:35.394Z,8.23
2023-02-07T19:30:44.676Z,7.75
2023-02-07T19:35:48.789Z,7.90
2023-02-07T19:41:03.338Z,7.50
2023-02-07T19:46:09.247Z,8.65
2023-02-07T19:51:25.433Z,7.80
2023-02-07T19:56:33.872Z,7.18
2023-02-07T20:01:38.772Z,7.38
2023-02-07T20:06:43.746Z,8.45
2023-02-07T20:11:46.419Z,7.07
2023-02-07T20:16:49.932Z,6.95
2023-02-07T20:21:52.676Z,7.80
2023-02-07T20:26:55.459Z,7.70
2023-02-07T20:31:59.449Z,7.68
2023-02-07T20:37:01.999Z,7.82
2023-02-07T20:42:04.729Z,8.60
2023-02-07T20:47:07.052Z,8.68
2023-02-07T20:52:09.682Z,9.13
2023-02-07T20:57:11.977Z,10.60
2023-02-07T21:02:17.144Z,9.27
2023-02-07T21:07:19.644Z,8.82
2023-02-07T21:12:23.501Z,9.10
2023-02-07T21:17:25.497Z,8.82
2023-02-07T21:22:28.818Z,8.50
2023-02-07T21:27:30.592Z,9.10
2023-02-07T21:32:32.597Z,9.20
2023-02-07T21:37:35.154Z,9.50
2023-02-07T21:42:36.837Z,9.10
2023-02-07T21:47:38.507Z,9.68
2023-02-07T21:52:40.206Z,9.45
2023-02-07T21:57:41.810Z,9.02
2023-02-07T22:02:43.484Z,9.98
2023-02-07T22:07:45.178Z,9.02
2023-02-07T22:12:46.813Z,9.10
2023-02-07T22:17:48.471Z,9.30
2023-02-07T22:22:50.161Z,8.85
2023-02-07T22:27:51.824Z,9.32
2023-02-07T22:32:53.484Z,9.02
2023-02-07T22:37:55.118Z,9.00
2023-02-07T22:42:56.778Z,8.77
2023-02-07T22:47:58.488Z,9.20
2023-02-07T22:53:00.245Z,9.55
2023-02-07T22:58:01.899Z,8.20
2023-02-07T23:03:03.621Z,8.57
2023-02-07T23:08:06.240Z,9.45
2023-02-07T23:13:08.289Z,9.00
2023-02-07T23:18:09.949Z,8.85
2023-02-07T23:23:12.933Z,8.40
2023-02-07T23:28:15.601Z,8.70
2023-02-07T23:33:17.375Z,9.13
2023-02-07T23:38:19.045Z,8.52
2023-02-07T23:43:20.833Z,8.27
2023-02-07T23:48:22.536Z,8.13
2023-02-07T23:53:25.344Z,8.85
2023-02-07T23:58:27.763Z,8.38
